sensor_id;sensor_type;location;lat;lon;timestamp;P1;durP1;ratioP1;P2;durP2;ratioP2
40745;SDS011;26454;51.164;4.488;2022-12-24T00:00:21;41.58;;;8.98;;
40745;SDS011;26454;51.164;4.488;2022-12-24T00:02:49;43.88;;;9.55;;
40745;SDS011;26454;51.164;4.488;2022-12-24T00:05:16;49.58;;;9.30;;
40745;SDS011;26454;51.164;4.488;2022-12-24T00:07:42;44.63;;;9.35;;
40745;SDS011;26454;51.164;4.488;2022-12-24T00:10:08;51.58;;;9.68;;
40745;SDS011;26454;51.164;4.488;2022-12-24T00:12:34;35.85;;;8.35;;
40745;SDS011;26454;51.164;4.488;2022-12-24T00:15:01;50.00;;;10.32;;
40745;SDS011;26454;51.164;4.488;2022-12-24T00:17:27;38.28;;;9.18;;
40745;SDS011;26454;51.164;4.488;2022-12-24T00:19:53;43.00;;;9.52;;
40745;SDS011;26454;51.164;4.488;2022-12-24T00:22:19;32.95;;;7.70;;
40745;SDS011;26454;51.164;4.488;2022-12-24T00:24:45;42.00;;;9.50;;
40745;SDS011;26454;51.164;4.488;2022-12-24T00:27:11;37.28;;;7.88;;
40745;SDS011;26454;51.164;4.488;2022-12-24T00:29:37;37.78;;;8.80;;
40745;SDS011;26454;51.164;4.488;2022-12-24T00:32:03;34.08;;;7.88;;
40745;SDS011;26454;51.164;4.488;2022-12-24T00:34:34;46.95;;;10.88;;
40745;SDS011;26454;51.164;4.488;2022-12-24T00:37:00;36.33;;;7.50;;
40745;SDS011;26454;51.164;4.488;2022-12-24T00:39:26;35.90;;;7.57;;
40745;SDS011;26454;51.164;4.488;2022-12-24T00:41:52;55.10;;;10.50;;
40745;SDS011;26454;51.164;4.488;2022-12-24T00:44:18;36.53;;;8.60;;
40745;SDS011;26454;51.164;4.488;2022-12-24T00:46:44;48.70;;;8.07;;
40745;SDS011;26454;51.164;4.488;2022-12-24T00:49:11;39.20;;;9.27;;
40745;SDS011;26454;51.164;4.488;2022-12-24T00:51:37;46.28;;;8.18;;
40745;SDS011;26454;51.164;4.488;2022-12-24T00:54:04;39.33;;;9.43;;
40745;SDS011;26454;51.164;4.488;2022-12-24T00:56:30;42.92;;;8.52;;
40745;SDS011;26454;51.164;4.488;2022-12-24T00:58:57;45.65;;;8.43;;
40745;SDS011;26454;51.164;4.488;2022-12-24T01:01:23;39.42;;;8.10;;
40745;SDS011;26454;51.164;4.488;2022-12-24T01:03:49;45.45;;;9.90;;
40745;SDS011;26454;51.164;4.488;2022-12-24T01:06:18;41.40;;;9.88;;
40745;SDS011;26454;51.164;4.488;2022-12-24T01:08:45;41.33;;;9.02;;
40745;SDS011;26454;51.164;4.488;2022-12-24T01:11:14;48.87;;;10.00;;
40745;SDS011;26454;51.164;4.488;2022-12-24T01:13:40;40.15;;;9.45;;
40745;SDS011;26454;51.164;4.488;2022-12-24T01:16:16;38.20;;;8.57;;
40745;SDS011;26454;51.164;4.488;2022-12-24T01:18:43;46.78;;;8.73;;
40745;SDS011;26454;51.164;4.488;2022-12-24T01:21:09;36.83;;;7.05;;
40745;SDS011;26454;51.164;4.488;2022-12-24T01:23:35;44.30;;;8.70;;
40745;SDS011;26454;51.164;4.488;2022-12-24T01:26:01;38.65;;;8.40;;
40745;SDS011;26454;51.164;4.488;2022-12-24T01:28:28;46.65;;;10.98;;
40745;SDS011;26454;51.164;4.488;2022-12-24T01:30:54;32.38;;;6.97;;
40745;SDS011;26454;51.164;4.488;2022-12-24T01:33:20;41.88;;;9.80;;
40745;SDS011;26454;51.164;4.488;2022-12-24T01:35:47;36.33;;;7.78;;
40745;SDS011;26454;51.164;4.488;2022-12-24T01:38:13;44.25;;;8.50;;
40745;SDS011;26454;51.164;4.488;2022-12-24T01:40:42;33.55;;;6.43;;
40745;SDS011;26454;51.164;4.488;2022-12-24T01:43:27;28.92;;;6.90;;
40745;SDS011;26454;51.164;4.488;2022-12-24T01:45:56;39.30;;;6.70;;
40745;SDS011;26454;51.164;4.488;2022-12-24T01:50:50;29.83;;;7.72;;
40745;SDS011;26454;51.164;4.488;2022-12-24T01:53:18;38.08;;;7.55;;
40745;SDS011;26454;51.164;4.488;2022-12-24T01:55:45;31.80;;;6.13;;
40745;SDS011;26454;51.164;4.488;2022-12-24T01:58:12;23.33;;;6.22;;
40745;SDS011;26454;51.164;4.488;2022-12-24T02:00:40;29.10;;;6.05;;
40745;SDS011;26454;51.164;4.488;2022-12-24T02:03:06;25.02;;;6.20;;
40745;SDS011;26454;51.164;4.488;2022-12-24T02:05:38;37.67;;;8.45;;
40745;SDS011;26454;51.164;4.488;2022-12-24T02:08:07;29.75;;;6.65;;
40745;SDS011;26454;51.164;4.488;2022-12-24T02:10:33;23.13;;;5.47;;
40745;SDS011;26454;51.164;4.488;2022-12-24T02:12:59;30.55;;;6.78;;
40745;SDS011;26454;51.164;4.488;2022-12-24T02:15:25;30.90;;;6.35;;
40745;SDS011;26454;51.164;4.488;2022-12-24T02:20:44;37.45;;;7.05;;
40745;SDS011;26454;51.164;4.488;2022-12-24T02:28:32;32.17;;;7.50;;
40745;SDS011;26454;51.164;4.488;2022-12-24T02:31:03;26.15;;;6.50;;
40745;SDS011;26454;51.164;4.488;2022-12-24T02:35:57;36.55;;;7.15;;
40745;SDS011;26454;51.164;4.488;2022-12-24T02:38:25;25.42;;;7.18;;
40745;SDS011;26454;51.164;4.488;2022-12-24T02:41:36;33.63;;;6.85;;
40745;SDS011;26454;51.164;4.488;2022-12-24T02:43:43;44.17;;;8.13;;
40745;SDS011;26454;51.164;4.488;2022-12-24T02:46:11;37.03;;;7.75;;
40745;SDS011;26454;51.164;4.488;2022-12-24T02:48:39;37.83;;;7.53;;
40745;SDS011;26454;51.164;4.488;2022-12-24T02:51:07;33.30;;;7.05;;
40745;SDS011;26454;51.164;4.488;2022-12-24T02:53:34;41.78;;;8.15;;
40745;SDS011;26454;51.164;4.488;2022-12-24T03:12:30;30.30;;;8.30;;
40745;SDS011;26454;51.164;4.488;2022-12-24T03:14:58;47.30;;;8.85;;
40745;SDS011;26454;51.164;4.488;2022-12-24T03:17:24;46.80;;;8.80;;
40745;SDS011;26454;51.164;4.488;2022-12-24T03:19:51;26.77;;;7.07;;
40745;SDS011;26454;51.164;4.488;2022-12-24T03:22:19;36.78;;;7.47;;
40745;SDS011;26454;51.164;4.488;2022-12-24T03:24:45;39.70;;;7.38;;
40745;SDS011;26454;51.164;4.488;2022-12-24T03:27:11;40.05;;;7.65;;
40745;SDS011;26454;51.164;4.488;2022-12-24T03:29:39;34.40;;;7.65;;
40745;SDS011;26454;51.164;4.488;2022-12-24T03:32:05;36.67;;;7.88;;
40745;SDS011;26454;51.164;4.488;2022-12-24T03:34:31;33.63;;;6.70;;
40745;SDS011;26454;51.164;4.488;2022-12-24T03:36:57;28.83;;;7.18;;
40745;SDS011;26454;51.164;4.488;2022-12-24T03:39:23;32.72;;;7.47;;
40745;SDS011;26454;51.164;4.488;2022-12-24T03:41:50;32.88;;;7.28;;
40745;SDS011;26454;51.164;4.488;2022-12-24T03:44:20;35.70;;;7.22;;
40745;SDS011;26454;51.164;4.488;2022-12-24T03:46:46;33.72;;;7.10;;
40745;SDS011;26454;51.164;4.488;2022-12-24T03:49:13;23.35;;;6.43;;
40745;SDS011;26454;51.164;4.488;2022-12-24T03:51:39;35.65;;;7.40;;
40745;SDS011;26454;51.164;4.488;2022-12-24T03:54:05;33.53;;;6.10;;
40745;SDS011;26454;51.164;4.488;2022-12-24T03:56:31;32.10;;;7.45;;
40745;SDS011;26454;51.164;4.488;2022-12-24T03:58:57;25.33;;;7.18;;
40745;SDS011;26454;51.164;4.488;2022-12-24T04:01:23;32.22;;;6.40;;
40745;SDS011;26454;51.164;4.488;2022-12-24T04:03:49;32.72;;;7.75;;
40745;SDS011;26454;51.164;4.488;2022-12-24T04:06:16;27.80;;;6.97;;
40745;SDS011;26454;51.164;4.488;2022-12-24T04:08:43;32.85;;;6.85;;
40745;SDS011;26454;51.164;4.488;2022-12-24T04:11:11;35.40;;;7.05;;
40745;SDS011;26454;51.164;4.488;2022-12-24T04:13:37;28.80;;;6.35;;
40745;SDS011;26454;51.164;4.488;2022-12-24T04:16:05;36.25;;;7.95;;
40745;SDS011;26454;51.164;4.488;2022-12-24T04:18:32;31.33;;;6.97;;
40745;SDS011;26454;51.164;4.488;2022-12-24T04:21:06;31.83;;;7.85;;
40745;SDS011;26454;51.164;4.488;2022-12-24T04:23:34;29.60;;;6.57;;
40745;SDS011;26454;51.164;4.488;2022-12-24T04:26:05;24.77;;;6.47;;
40745;SDS011;26454;51.164;4.488;2022-12-24T04:28:31;22.52;;;6.30;;
40745;SDS011;26454;51.164;4.488;2022-12-24T04:30:59;25.75;;;6.53;;
40745;SDS011;26454;51.164;4.488;2022-12-24T04:33:26;41.25;;;7.57;;
40745;SDS011;26454;51.164;4.488;2022-12-24T04:35:52;35.15;;;7.53;;
40745;SDS011;26454;51.164;4.488;2022-12-24T04:38:25;38.83;;;8.25;;
40745;SDS011;26454;51.164;4.488;2022-12-24T04:40:59;25.98;;;5.72;;
40745;SDS011;26454;51.164;4.488;2022-12-24T04:43:26;36.03;;;6.03;;
40745;SDS011;26454;51.164;4.488;2022-12-24T04:45:52;30.52;;;7.35;;
40745;SDS011;26454;51.164;4.488;2022-12-24T04:48:20;31.73;;;6.82;;
40745;SDS011;26454;51.164;4.488;2022-12-24T04:50:46;35.00;;;7.85;;
40745;SDS011;26454;51.164;4.488;2022-12-24T04:53:12;30.17;;;6.95;;
40745;SDS011;26454;51.164;4.488;2022-12-24T04:55:42;35.80;;;7.90;;
40745;SDS011;26454;51.164;4.488;2022-12-24T04:58:09;31.25;;;7.22;;
40745;SDS011;26454;51.164;4.488;2022-12-24T05:00:35;32.05;;;7.50;;
40745;SDS011;26454;51.164;4.488;2022-12-24T05:03:01;32.28;;;7.40;;
40745;SDS011;26454;51.164;4.488;2022-12-24T05:05:27;39.30;;;7.95;;
40745;SDS011;26454;51.164;4.488;2022-12-24T05:07:54;21.88;;;5.50;;
40745;SDS011;26454;51.164;4.488;2022-12-24T05:10:20;35.72;;;7.22;;
40745;SDS011;26454;51.164;4.488;2022-12-24T05:12:46;46.40;;;8.98;;
40745;SDS011;26454;51.164;4.488;2022-12-24T05:15:12;34.72;;;7.97;;
40745;SDS011;26454;51.164;4.488;2022-12-24T05:17:38;32.10;;;6.22;;
40745;SDS011;26454;51.164;4.488;2022-12-24T05:20:04;46.08;;;8.82;;
40745;SDS011;26454;51.164;4.488;2022-12-24T05:22:31;32.92;;;6.78;;
40745;SDS011;26454;51.164;4.488;2022-12-24T05:28:03;39.10;;;8.85;;
40745;SDS011;26454;51.164;4.488;2022-12-24T05:30:29;43.53;;;8.52;;
40745;SDS011;26454;51.164;4.488;2022-12-24T05:32:55;34.42;;;8.52;;
40745;SDS011;26454;51.164;4.488;2022-12-24T05:35:21;36.65;;;8.82;;
40745;SDS011;26454;51.164;4.488;2022-12-24T05:37:47;32.88;;;8.80;;
40745;SDS011;26454;51.164;4.488;2022-12-24T05:40:13;39.28;;;7.20;;
40745;SDS011;26454;51.164;4.488;2022-12-24T05:42:39;36.78;;;6.88;;
40745;SDS011;26454;51.164;4.488;2022-12-24T05:45:05;43.15;;;7.25;;
40745;SDS011;26454;51.164;4.488;2022-12-24T05:47:31;35.13;;;7.32;;
40745;SDS011;26454;51.164;4.488;2022-12-24T05:49:57;34.25;;;6.38;;
40745;SDS011;26454;51.164;4.488;2022-12-24T05:52:24;44.80;;;8.05;;
40745;SDS011;26454;51.164;4.488;2022-12-24T05:54:50;33.90;;;7.95;;
40745;SDS011;26454;51.164;4.488;2022-12-24T05:57:16;32.60;;;6.97;;
40745;SDS011;26454;51.164;4.488;2022-12-24T05:59:42;36.95;;;8.60;;
40745;SDS011;26454;51.164;4.488;2022-12-24T06:02:09;38.10;;;7.57;;
40745;SDS011;26454;51.164;4.488;2022-12-24T06:04:35;43.80;;;8.65;;
40745;SDS011;26454;51.164;4.488;2022-12-24T06:07:01;51.05;;;9.57;;
40745;SDS011;26454;51.164;4.488;2022-12-24T06:09:27;38.03;;;9.43;;
40745;SDS011;26454;51.164;4.488;2022-12-24T06:11:54;41.67;;;7.00;;
40745;SDS011;26454;51.164;4.488;2022-12-24T06:14:20;47.22;;;9.15;;
40745;SDS011;26454;51.164;4.488;2022-12-24T06:16:46;45.92;;;9.25;;
40745;SDS011;26454;51.164;4.488;2022-12-24T06:19:12;30.83;;;7.72;;
40745;SDS011;26454;51.164;4.488;2022-12-24T06:21:38;39.40;;;8.82;;
40745;SDS011;26454;51.164;4.488;2022-12-24T06:24:05;39.88;;;9.23;;
40745;SDS011;26454;51.164;4.488;2022-12-24T06:26:31;32.65;;;7.93;;
40745;SDS011;26454;51.164;4.488;2022-12-24T06:28:58;47.47;;;8.35;;
40745;SDS011;26454;51.164;4.488;2022-12-24T06:31:24;37.10;;;8.20;;
40745;SDS011;26454;51.164;4.488;2022-12-24T06:33:50;39.15;;;8.00;;
40745;SDS011;26454;51.164;4.488;2022-12-24T06:36:18;39.72;;;10.02;;
40745;SDS011;26454;51.164;4.488;2022-12-24T06:38:45;34.22;;;7.22;;
40745;SDS011;26454;51.164;4.488;2022-12-24T06:41:12;46.15;;;8.95;;
40745;SDS011;26454;51.164;4.488;2022-12-24T06:43:38;35.65;;;8.52;;
40745;SDS011;26454;51.164;4.488;2022-12-24T06:46:07;36.63;;;8.55;;
40745;SDS011;26454;51.164;4.488;2022-12-24T06:48:34;52.13;;;10.05;;
40745;SDS011;26454;51.164;4.488;2022-12-24T06:51:01;34.25;;;9.35;;
40745;SDS011;26454;51.164;4.488;2022-12-24T06:53:27;40.40;;;10.15;;
40745;SDS011;26454;51.164;4.488;2022-12-24T06:55:59;35.13;;;8.38;;
40745;SDS011;26454;51.164;4.488;2022-12-24T06:58:26;43.38;;;8.45;;
40745;SDS011;26454;51.164;4.488;2022-12-24T07:00:52;45.08;;;9.77;;
40745;SDS011;26454;51.164;4.488;2022-12-24T07:03:19;44.50;;;9.82;;
40745;SDS011;26454;51.164;4.488;2022-12-24T07:05:47;50.60;;;9.95;;
40745;SDS011;26454;51.164;4.488;2022-12-24T07:08:13;51.95;;;11.20;;
40745;SDS011;26454;51.164;4.488;2022-12-24T07:10:39;39.25;;;10.85;;
40745;SDS011;26454;51.164;4.488;2022-12-24T07:13:05;47.88;;;9.70;;
40745;SDS011;26454;51.164;4.488;2022-12-24T07:15:31;44.42;;;9.25;;
40745;SDS011;26454;51.164;4.488;2022-12-24T07:17:57;41.35;;;9.15;;
40745;SDS011;26454;51.164;4.488;2022-12-24T07:20:23;44.22;;;9.50;;
40745;SDS011;26454;51.164;4.488;2022-12-24T07:22:50;36.47;;;9.30;;
40745;SDS011;26454;51.164;4.488;2022-12-24T07:25:22;37.17;;;7.90;;
40745;SDS011;26454;51.164;4.488;2022-12-24T07:27:48;53.90;;;10.25;;
40745;SDS011;26454;51.164;4.488;2022-12-24T07:30:15;39.25;;;7.53;;
40745;SDS011;26454;51.164;4.488;2022-12-24T07:32:42;39.92;;;8.65;;
40745;SDS011;26454;51.164;4.488;2022-12-24T07:35:08;36.33;;;7.47;;
40745;SDS011;26454;51.164;4.488;2022-12-24T07:37:34;34.40;;;9.45;;
40745;SDS011;26454;51.164;4.488;2022-12-24T07:40:00;28.80;;;6.78;;
40745;SDS011;26454;51.164;4.488;2022-12-24T07:42:26;34.80;;;9.30;;
40745;SDS011;26454;51.164;4.488;2022-12-24T07:44:53;43.92;;;8.82;;
40745;SDS011;26454;51.164;4.488;2022-12-24T07:47:19;38.92;;;9.13;;
40745;SDS011;26454;51.164;4.488;2022-12-24T07:49:45;42.15;;;8.75;;
40745;SDS011;26454;51.164;4.488;2022-12-24T07:52:12;45.35;;;9.82;;
40745;SDS011;26454;51.164;4.488;2022-12-24T07:54:38;37.05;;;8.40;;
40745;SDS011;26454;51.164;4.488;2022-12-24T07:57:04;45.03;;;9.70;;
40745;SDS011;26454;51.164;4.488;2022-12-24T07:59:30;42.25;;;9.40;;
40745;SDS011;26454;51.164;4.488;2022-12-24T08:01:56;37.83;;;9.00;;
40745;SDS011;26454;51.164;4.488;2022-12-24T08:04:22;38.15;;;8.65;;
40745;SDS011;26454;51.164;4.488;2022-12-24T08:06:49;48.47;;;10.05;;
40745;SDS011;26454;51.164;4.488;2022-12-24T08:09:16;39.65;;;9.45;;
40745;SDS011;26454;51.164;4.488;2022-12-24T08:11:43;39.72;;;9.32;;
40745;SDS011;26454;51.164;4.488;2022-12-24T08:14:09;37.22;;;9.90;;
40745;SDS011;26454;51.164;4.488;2022-12-24T08:16:35;30.48;;;8.63;;
40745;SDS011;26454;51.164;4.488;2022-12-24T08:19:01;40.95;;;9.10;;
40745;SDS011;26454;51.164;4.488;2022-12-24T08:21:27;41.92;;;8.23;;
40745;SDS011;26454;51.164;4.488;2022-12-24T08:23:53;39.72;;;7.65;;
40745;SDS011;26454;51.164;4.488;2022-12-24T08:26:20;42.13;;;8.75;;
40745;SDS011;26454;51.164;4.488;2022-12-24T08:28:46;51.10;;;9.18;;
40745;SDS011;26454;51.164;4.488;2022-12-24T08:31:12;41.35;;;8.38;;
40745;SDS011;26454;51.164;4.488;2022-12-24T08:33:39;42.75;;;8.00;;
40745;SDS011;26454;51.164;4.488;2022-12-24T08:36:06;35.40;;;8.90;;
40745;SDS011;26454;51.164;4.488;2022-12-24T08:38:32;36.58;;;9.27;;
40745;SDS011;26454;51.164;4.488;2022-12-24T08:40:59;39.53;;;9.98;;
40745;SDS011;26454;51.164;4.488;2022-12-24T08:43:25;36.33;;;10.07;;
40745;SDS011;26454;51.164;4.488;2022-12-24T08:45:52;46.97;;;10.57;;
40745;SDS011;26454;51.164;4.488;2022-12-24T08:48:18;37.90;;;8.68;;
40745;SDS011;26454;51.164;4.488;2022-12-24T08:50:45;42.40;;;9.77;;
40745;SDS011;26454;51.164;4.488;2022-12-24T08:53:11;37.17;;;9.27;;
40745;SDS011;26454;51.164;4.488;2022-12-24T08:55:38;38.47;;;8.00;;
40745;SDS011;26454;51.164;4.488;2022-12-24T08:58:04;36.10;;;9.18;;
40745;SDS011;26454;51.164;4.488;2022-12-24T09:00:31;40.03;;;8.98;;
40745;SDS011;26454;51.164;4.488;2022-12-24T09:02:58;38.10;;;8.85;;
40745;SDS011;26454;51.164;4.488;2022-12-24T09:08:00;40.17;;;7.85;;
40745;SDS011;26454;51.164;4.488;2022-12-24T09:10:27;28.05;;;7.78;;
40745;SDS011;26454;51.164;4.488;2022-12-24T09:12:53;38.90;;;8.50;;
40745;SDS011;26454;51.164;4.488;2022-12-24T09:15:19;37.10;;;8.80;;
40745;SDS011;26454;51.164;4.488;2022-12-24T09:17:45;35.45;;;6.78;;
40745;SDS011;26454;51.164;4.488;2022-12-24T09:20:11;48.72;;;9.77;;
40745;SDS011;26454;51.164;4.488;2022-12-24T09:22:38;31.77;;;9.45;;
40745;SDS011;26454;51.164;4.488;2022-12-24T09:25:05;36.60;;;9.35;;
40745;SDS011;26454;51.164;4.488;2022-12-24T09:27:32;35.75;;;8.40;;
40745;SDS011;26454;51.164;4.488;2022-12-24T09:29:59;38.38;;;10.55;;
40745;SDS011;26454;51.164;4.488;2022-12-24T09:32:25;44.08;;;10.85;;
40745;SDS011;26454;51.164;4.488;2022-12-24T09:34:53;32.72;;;9.88;;
40745;SDS011;26454;51.164;4.488;2022-12-24T09:37:21;36.40;;;10.55;;
40745;SDS011;26454;51.164;4.488;2022-12-24T09:39:47;49.47;;;11.05;;
40745;SDS011;26454;51.164;4.488;2022-12-24T09:42:28;44.25;;;8.63;;
40745;SDS011;26454;51.164;4.488;2022-12-24T09:44:57;38.25;;;9.63;;
40745;SDS011;26454;51.164;4.488;2022-12-24T09:47:33;41.35;;;8.20;;
40745;SDS011;26454;51.164;4.488;2022-12-24T09:50:21;42.58;;;9.02;;
40745;SDS011;26454;51.164;4.488;2022-12-24T09:52:49;46.58;;;9.82;;
40745;SDS011;26454;51.164;4.488;2022-12-24T09:55:36;44.17;;;8.15;;
40745;SDS011;26454;51.164;4.488;2022-12-24T09:58:05;32.80;;;7.88;;
40745;SDS011;26454;51.164;4.488;2022-12-24T10:00:34;41.65;;;8.95;;
40745;SDS011;26454;51.164;4.488;2022-12-24T10:03:00;32.03;;;8.88;;
40745;SDS011;26454;51.164;4.488;2022-12-24T10:08:09;32.40;;;7.32;;
40745;SDS011;26454;51.164;4.488;2022-12-24T10:10:45;37.90;;;8.52;;
40745;SDS011;26454;51.164;4.488;2022-12-24T10:13:22;26.15;;;7.15;;
40745;SDS011;26454;51.164;4.488;2022-12-24T10:16:02;34.03;;;7.78;;
40745;SDS011;26454;51.164;4.488;2022-12-24T10:26:06;35.00;;;9.63;;
40745;SDS011;26454;51.164;4.488;2022-12-24T10:28:39;27.27;;;6.93;;
40745;SDS011;26454;51.164;4.488;2022-12-24T10:31:08;42.88;;;8.90;;
40745;SDS011;26454;51.164;4.488;2022-12-24T10:33:42;36.28;;;8.43;;
40745;SDS011;26454;51.164;4.488;2022-12-24T10:36:10;37.17;;;9.10;;
40745;SDS011;26454;51.164;4.488;2022-12-24T10:38:40;31.92;;;8.48;;
40745;SDS011;26454;51.164;4.488;2022-12-24T10:41:06;37.03;;;8.40;;
40745;SDS011;26454;51.164;4.488;2022-12-24T10:43:32;51.25;;;8.10;;
40745;SDS011;26454;51.164;4.488;2022-12-24T10:46:00;39.33;;;7.35;;
40745;SDS011;26454;51.164;4.488;2022-12-24T10:48:39;47.63;;;8.98;;
40745;SDS011;26454;51.164;4.488;2022-12-24T10:51:12;33.30;;;7.53;;
40745;SDS011;26454;51.164;4.488;2022-12-24T10:53:48;31.98;;;8.27;;
40745;SDS011;26454;51.164;4.488;2022-12-24T10:56:16;29.88;;;7.63;;
40745;SDS011;26454;51.164;4.488;2022-12-24T10:58:44;37.42;;;8.35;;
40745;SDS011;26454;51.164;4.488;2022-12-24T11:01:10;37.75;;;7.50;;
40745;SDS011;26454;51.164;4.488;2022-12-24T11:03:37;34.67;;;7.28;;
40745;SDS011;26454;51.164;4.488;2022-12-24T11:06:08;38.63;;;9.25;;
40745;SDS011;26454;51.164;4.488;2022-12-24T11:08:35;32.13;;;7.40;;
40745;SDS011;26454;51.164;4.488;2022-12-24T11:11:04;41.42;;;8.30;;
40745;SDS011;26454;51.164;4.488;2022-12-24T11:13:38;31.92;;;8.18;;
40745;SDS011;26454;51.164;4.488;2022-12-24T11:18:50;36.95;;;7.25;;
40745;SDS011;26454;51.164;4.488;2022-12-24T11:21:18;33.08;;;7.88;;
40745;SDS011;26454;51.164;4.488;2022-12-24T11:23:48;38.97;;;7.13;;
40745;SDS011;26454;51.164;4.488;2022-12-24T11:26:19;41.10;;;9.25;;
40745;SDS011;26454;51.164;4.488;2022-12-24T11:28:46;42.20;;;9.13;;
40745;SDS011;26454;51.164;4.488;2022-12-24T11:31:27;34.42;;;8.13;;
40745;SDS011;26454;51.164;4.488;2022-12-24T11:33:56;36.65;;;8.48;;
40745;SDS011;26454;51.164;4.488;2022-12-24T11:36:23;34.33;;;8.23;;
40745;SDS011;26454;51.164;4.488;2022-12-24T11:38:55;37.05;;;7.82;;
40745;SDS011;26454;51.164;4.488;2022-12-24T11:41:21;38.83;;;8.20;;
40745;SDS011;26454;51.164;4.488;2022-12-24T11:43:58;34.58;;;8.18;;
40745;SDS011;26454;51.164;4.488;2022-12-24T11:49:03;40.50;;;7.88;;
40745;SDS011;26454;51.164;4.488;2022-12-24T11:51:29;37.95;;;9.00;;
40745;SDS011;26454;51.164;4.488;2022-12-24T11:56:38;33.28;;;8.50;;
40745;SDS011;26454;51.164;4.488;2022-12-24T11:59:11;28.55;;;7.57;;
40745;SDS011;26454;51.164;4.488;2022-12-24T12:01:50;30.77;;;7.72;;
40745;SDS011;26454;51.164;4.488;2022-12-24T12:04:21;32.53;;;7.55;;
40745;SDS011;26454;51.164;4.488;2022-12-24T12:06:50;22.77;;;7.03;;
40745;SDS011;26454;51.164;4.488;2022-12-24T12:09:19;35.67;;;9.23;;
40745;SDS011;26454;51.164;4.488;2022-12-24T12:11:47;47.08;;;10.15;;
40745;SDS011;26454;51.164;4.488;2022-12-24T12:14:26;37.08;;;8.07;;
40745;SDS011;26454;51.164;4.488;2022-12-24T12:16:58;25.17;;;6.32;;
40745;SDS011;26454;51.164;4.488;2022-12-24T12:19:44;27.60;;;7.35;;
40745;SDS011;26454;51.164;4.488;2022-12-24T12:25:03;38.78;;;8.45;;
40745;SDS011;26454;51.164;4.488;2022-12-24T12:27:35;35.25;;;7.93;;
40745;SDS011;26454;51.164;4.488;2022-12-24T12:30:05;34.42;;;8.05;;
40745;SDS011;26454;51.164;4.488;2022-12-24T12:32:40;37.35;;;9.77;;
40745;SDS011;26454;51.164;4.488;2022-12-24T12:35:15;29.98;;;7.10;;
40745;SDS011;26454;51.164;4.488;2022-12-24T12:37:45;39.63;;;8.52;;
40745;SDS011;26454;51.164;4.488;2022-12-24T12:40:13;28.30;;;7.00;;
40745;SDS011;26454;51.164;4.488;2022-12-24T12:42:40;37.35;;;8.38;;
40745;SDS011;26454;51.164;4.488;2022-12-24T12:47:42;37.65;;;8.10;;
40745;SDS011;26454;51.164;4.488;2022-12-24T12:50:16;29.88;;;7.93;;
40745;SDS011;26454;51.164;4.488;2022-12-24T12:58:24;30.75;;;8.10;;
40745;SDS011;26454;51.164;4.488;2022-12-24T13:00:51;26.15;;;7.22;;
40745;SDS011;26454;51.164;4.488;2022-12-24T13:11:45;30.73;;;7.80;;
40745;SDS011;26454;51.164;4.488;2022-12-24T13:21:49;38.05;;;8.70;;
40745;SDS011;26454;51.164;4.488;2022-12-24T13:24:18;32.53;;;7.75;;
40745;SDS011;26454;51.164;4.488;2022-12-24T13:35:01;40.65;;;9.82;;
40745;SDS011;26454;51.164;4.488;2022-12-24T13:40:01;35.45;;;8.55;;
40745;SDS011;26454;51.164;4.488;2022-12-24T13:48:39;35.88;;;9.38;;
40745;SDS011;26454;51.164;4.488;2022-12-24T13:50:42;34.38;;;8.88;;
40745;SDS011;26454;51.164;4.488;2022-12-24T13:56:37;30.17;;;8.60;;
40745;SDS011;26454;51.164;4.488;2022-12-24T13:58:41;38.75;;;8.35;;
40745;SDS011;26454;51.164;4.488;2022-12-24T14:01:13;38.35;;;10.50;;
40745;SDS011;26454;51.164;4.488;2022-12-24T14:03:53;34.88;;;8.77;;
40745;SDS011;26454;51.164;4.488;2022-12-24T14:06:30;32.75;;;10.93;;
40745;SDS011;26454;51.164;4.488;2022-12-24T14:09:03;27.60;;;9.48;;
40745;SDS011;26454;51.164;4.488;2022-12-24T14:11:30;41.78;;;10.98;;
40745;SDS011;26454;51.164;4.488;2022-12-24T14:14:30;42.50;;;11.30;;
40745;SDS011;26454;51.164;4.488;2022-12-24T14:16:57;42.22;;;10.77;;
40745;SDS011;26454;51.164;4.488;2022-12-24T14:19:25;39.67;;;8.85;;
40745;SDS011;26454;51.164;4.488;2022-12-24T14:22:13;33.00;;;8.98;;
40745;SDS011;26454;51.164;4.488;2022-12-24T14:24:45;38.38;;;9.82;;
40745;SDS011;26454;51.164;4.488;2022-12-24T14:27:23;30.77;;;8.57;;
40745;SDS011;26454;51.164;4.488;2022-12-24T14:29:51;26.67;;;8.35;;
40745;SDS011;26454;51.164;4.488;2022-12-24T14:32:19;34.42;;;9.68;;
40745;SDS011;26454;51.164;4.488;2022-12-24T14:34:45;39.45;;;9.63;;
40745;SDS011;26454;51.164;4.488;2022-12-24T14:37:11;33.67;;;10.43;;
40745;SDS011;26454;51.164;4.488;2022-12-24T14:39:40;32.58;;;10.45;;
40745;SDS011;26454;51.164;4.488;2022-12-24T14:44:59;41.85;;;10.32;;
40745;SDS011;26454;51.164;4.488;2022-12-24T14:47:39;32.65;;;9.45;;
40745;SDS011;26454;51.164;4.488;2022-12-24T14:55:25;39.25;;;10.55;;
40745;SDS011;26454;51.164;4.488;2022-12-24T14:57:47;35.00;;;10.57;;
40745;SDS011;26454;51.164;4.488;2022-12-24T15:00:29;39.00;;;10.35;;
40745;SDS011;26454;51.164;4.488;2022-12-24T15:02:55;37.83;;;10.82;;
40745;SDS011;26454;51.164;4.488;2022-12-24T15:05:26;31.33;;;9.63;;
40745;SDS011;26454;51.164;4.488;2022-12-24T15:08:06;35.53;;;9.50;;
40745;SDS011;26454;51.164;4.488;2022-12-24T15:10:35;35.92;;;11.10;;
40745;SDS011;26454;51.164;4.488;2022-12-24T15:13:06;46.38;;;11.50;;
40745;SDS011;26454;51.164;4.488;2022-12-24T15:15:33;40.38;;;10.15;;
40745;SDS011;26454;51.164;4.488;2022-12-24T15:17:59;31.85;;;9.43;;
40745;SDS011;26454;51.164;4.488;2022-12-24T15:20:26;39.35;;;8.90;;
40745;SDS011;26454;51.164;4.488;2022-12-24T15:22:54;35.22;;;9.63;;
40745;SDS011;26454;51.164;4.488;2022-12-24T15:25:23;40.65;;;9.68;;
40745;SDS011;26454;51.164;4.488;2022-12-24T15:27:49;34.85;;;10.70;;
40745;SDS011;26454;51.164;4.488;2022-12-24T15:30:17;45.45;;;11.90;;
40745;SDS011;26454;51.164;4.488;2022-12-24T15:32:43;34.20;;;9.95;;
40745;SDS011;26454;51.164;4.488;2022-12-24T15:38:00;25.27;;;9.50;;
40745;SDS011;26454;51.164;4.488;2022-12-24T15:40:26;38.03;;;11.38;;
40745;SDS011;26454;51.164;4.488;2022-12-24T15:42:53;34.47;;;10.80;;
40745;SDS011;26454;51.164;4.488;2022-12-24T15:45:23;28.83;;;10.35;;
40745;SDS011;26454;51.164;4.488;2022-12-24T15:47:54;43.78;;;10.13;;
40745;SDS011;26454;51.164;4.488;2022-12-24T15:52:46;33.00;;;10.23;;
40745;SDS011;26454;51.164;4.488;2022-12-24T15:57:57;36.25;;;10.43;;
40745;SDS011;26454;51.164;4.488;2022-12-24T16:00:24;32.92;;;12.07;;
40745;SDS011;26454;51.164;4.488;2022-12-24T16:02:54;36.15;;;10.75;;
40745;SDS011;26454;51.164;4.488;2022-12-24T16:05:29;30.92;;;10.82;;
40745;SDS011;26454;51.164;4.488;2022-12-24T16:08:03;44.90;;;13.13;;
40745;SDS011;26454;51.164;4.488;2022-12-24T16:10:36;32.78;;;12.13;;
40745;SDS011;26454;51.164;4.488;2022-12-24T16:13:09;40.95;;;11.07;;
40745;SDS011;26454;51.164;4.488;2022-12-24T16:15:40;31.63;;;11.85;;
40745;SDS011;26454;51.164;4.488;2022-12-24T16:18:13;29.65;;;11.07;;
40745;SDS011;26454;51.164;4.488;2022-12-24T16:20:44;34.05;;;13.10;;
40745;SDS011;26454;51.164;4.488;2022-12-24T16:23:15;38.35;;;13.02;;
40745;SDS011;26454;51.164;4.488;2022-12-24T16:25:41;33.17;;;12.60;;
40745;SDS011;26454;51.164;4.488;2022-12-24T16:28:10;36.35;;;13.68;;
40745;SDS011;26454;51.164;4.488;2022-12-24T16:30:36;42.95;;;13.80;;
40745;SDS011;26454;51.164;4.488;2022-12-24T16:33:04;44.10;;;14.70;;
40745;SDS011;26454;51.164;4.488;2022-12-24T16:35:30;34.75;;;14.90;;